sensor_id;sensor_type;location;lat;lon;timestamp;P1;durP1;ratioP1;P2;durP2;ratioP2
42098;SDS011;27758;55.900;8.516;2023-09-30T00:01:10;23.55;;;4.55;;
42098;SDS011;27758;55.900;8.516;2023-09-30T00:03:36;21.13;;;5.13;;
42098;SDS011;27758;55.900;8.516;2023-09-30T00:06:02;26.15;;;5.65;;
42098;SDS011;27758;55.900;8.516;2023-09-30T00:08:29;20.10;;;5.68;;
42098;SDS011;27758;55.900;8.516;2023-09-30T00:10:55;21.70;;;4.50;;
42098;SDS011;27758;55.900;8.516;2023-09-30T00:13:20;23.90;;;5.68;;
42098;SDS011;27758;55.900;8.516;2023-09-30T00:15:46;19.20;;;3.95;;
42098;SDS011;27758;55.900;8.516;2023-09-30T00:18:12;26.50;;;5.15;;
42098;SDS011;27758;55.900;8.516;2023-09-30T00:20:38;21.08;;;5.15;;
42098;SDS011;27758;55.900;8.516;2023-09-30T00:23:05;28.77;;;4.72;;
42098;SDS011;27758;55.900;8.516;2023-09-30T00:25:32;22.75;;;4.78;;
42098;SDS011;27758;55.900;8.516;2023-09-30T00:27:58;22.45;;;4.80;;
42098;SDS011;27758;55.900;8.516;2023-09-30T00:30:24;21.75;;;5.47;;
42098;SDS011;27758;55.900;8.516;2023-09-30T00:32:50;21.10;;;4.65;;
42098;SDS011;27758;55.900;8.516;2023-09-30T00:35:15;21.90;;;4.65;;
42098;SDS011;27758;55.900;8.516;2023-09-30T00:37:41;20.45;;;4.70;;
42098;SDS011;27758;55.900;8.516;2023-09-30T00:40:07;25.63;;;4.20;;
42098;SDS011;27758;55.900;8.516;2023-09-30T00:42:37;18.17;;;4.25;;
42098;SDS011;27758;55.900;8.516;2023-09-30T00:45:03;26.85;;;5.53;;
42098;SDS011;27758;55.900;8.516;2023-09-30T00:47:30;15.93;;;4.22;;
42098;SDS011;27758;55.900;8.516;2023-09-30T00:49:56;22.25;;;4.03;;
42098;SDS011;27758;55.900;8.516;2023-09-30T00:52:22;19.30;;;3.97;;
42098;SDS011;27758;55.900;8.516;2023-09-30T00:54:48;22.50;;;5.35;;
42098;SDS011;27758;55.900;8.516;2023-09-30T00:57:15;18.90;;;3.88;;
42098;SDS011;27758;55.900;8.516;2023-09-30T00:59:45;20.67;;;3.92;;
42098;SDS011;27758;55.900;8.516;2023-09-30T01:02:12;25.27;;;5.15;;
42098;SDS011;27758;55.900;8.516;2023-09-30T01:04:41;22.30;;;5.23;;
42098;SDS011;27758;55.900;8.516;2023-09-30T01:07:07;24.92;;;4.53;;
42098;SDS011;27758;55.900;8.516;2023-09-30T01:09:34;25.95;;;5.35;;
42098;SDS011;27758;55.900;8.516;2023-09-30T01:12:01;27.42;;;4.47;;
42098;SDS011;27758;55.900;8.516;2023-09-30T01:14:28;26.30;;;4.88;;
42098;SDS011;27758;55.900;8.516;2023-09-30T01:16:55;25.88;;;5.40;;
42098;SDS011;27758;55.900;8.516;2023-09-30T01:19:22;28.70;;;6.13;;
42098;SDS011;27758;55.900;8.516;2023-09-30T01:21:53;24.17;;;4.77;;
42098;SDS011;27758;55.900;8.516;2023-09-30T01:24:21;31.00;;;6.10;;
42098;SDS011;27758;55.900;8.516;2023-09-30T01:26:47;22.73;;;4.85;;
42098;SDS011;27758;55.900;8.516;2023-09-30T01:29:13;26.50;;;5.47;;
42098;SDS011;27758;55.900;8.516;2023-09-30T01:31:39;24.17;;;5.47;;
42098;SDS011;27758;55.900;8.516;2023-09-30T01:34:05;23.60;;;4.32;;
42098;SDS011;27758;55.900;8.516;2023-09-30T01:36:31;24.58;;;4.80;;
42098;SDS011;27758;55.900;8.516;2023-09-30T01:38:57;26.08;;;6.10;;
42098;SDS011;27758;55.900;8.516;2023-09-30T01:41:23;22.67;;;3.95;;
42098;SDS011;27758;55.900;8.516;2023-09-30T01:43:48;19.45;;;4.25;;
42098;SDS011;27758;55.900;8.516;2023-09-30T01:46:14;23.88;;;4.47;;
42098;SDS011;27758;55.900;8.516;2023-09-30T01:48:40;29.38;;;5.53;;
42098;SDS011;27758;55.900;8.516;2023-09-30T01:51:06;24.00;;;4.70;;
42098;SDS011;27758;55.900;8.516;2023-09-30T01:53:32;21.02;;;5.18;;
42098;SDS011;27758;55.900;8.516;2023-09-30T01:55:58;18.92;;;4.00;;
42098;SDS011;27758;55.900;8.516;2023-09-30T01:58:24;18.77;;;4.40;;
42098;SDS011;27758;55.900;8.516;2023-09-30T02:00:53;18.52;;;4.75;;
42098;SDS011;27758;55.900;8.516;2023-09-30T02:03:19;27.00;;;4.80;;
42098;SDS011;27758;55.900;8.516;2023-09-30T02:05:45;26.48;;;5.13;;
42098;SDS011;27758;55.900;8.516;2023-09-30T02:08:11;22.63;;;5.03;;
42098;SDS011;27758;55.900;8.516;2023-09-30T02:10:38;18.70;;;4.28;;
42098;SDS011;27758;55.900;8.516;2023-09-30T02:13:04;21.05;;;4.20;;
42098;SDS011;27758;55.900;8.516;2023-09-30T02:15:31;18.95;;;4.32;;
42098;SDS011;27758;55.900;8.516;2023-09-30T02:17:57;25.92;;;4.57;;
42098;SDS011;27758;55.900;8.516;2023-09-30T02:20:23;20.67;;;4.60;;
42098;SDS011;27758;55.900;8.516;2023-09-30T02:22:51;22.10;;;4.57;;
42098;SDS011;27758;55.900;8.516;2023-09-30T02:25:17;17.10;;;4.38;;
42098;SDS011;27758;55.900;8.516;2023-09-30T02:27:43;22.75;;;4.32;;
42098;SDS011;27758;55.900;8.516;2023-09-30T02:30:10;28.77;;;4.55;;
42098;SDS011;27758;55.900;8.516;2023-09-30T02:32:41;21.40;;;4.53;;
42098;SDS011;27758;55.900;8.516;2023-09-30T02:35:07;25.23;;;5.18;;
42098;SDS011;27758;55.900;8.516;2023-09-30T02:37:37;24.98;;;4.25;;
42098;SDS011;27758;55.900;8.516;2023-09-30T02:40:03;21.38;;;4.05;;
42098;SDS011;27758;55.900;8.516;2023-09-30T02:42:31;29.20;;;5.30;;
42098;SDS011;27758;55.900;8.516;2023-09-30T02:44:59;21.95;;;4.25;;
42098;SDS011;27758;55.900;8.516;2023-09-30T02:47:26;20.37;;;4.87;;
42098;SDS011;27758;55.900;8.516;2023-09-30T02:49:51;24.30;;;5.38;;
42098;SDS011;27758;55.900;8.516;2023-09-30T02:52:17;24.77;;;4.97;;
42098;SDS011;27758;55.900;8.516;2023-09-30T02:54:43;26.35;;;4.45;;
42098;SDS011;27758;55.900;8.516;2023-09-30T02:57:08;23.67;;;4.43;;
42098;SDS011;27758;55.900;8.516;2023-09-30T02:59:34;21.92;;;4.05;;
42098;SDS011;27758;55.900;8.516;2023-09-30T03:02:01;24.00;;;3.92;;
42098;SDS011;27758;55.900;8.516;2023-09-30T03:04:28;18.20;;;3.63;;
42098;SDS011;27758;55.900;8.516;2023-09-30T03:06:54;16.55;;;3.75;;
42098;SDS011;27758;55.900;8.516;2023-09-30T03:09:21;24.75;;;4.13;;
42098;SDS011;27758;55.900;8.516;2023-09-30T03:11:47;19.00;;;3.55;;
42098;SDS011;27758;55.900;8.516;2023-09-30T03:14:13;23.13;;;4.15;;
42098;SDS011;27758;55.900;8.516;2023-09-30T03:16:39;19.65;;;4.00;;
42098;SDS011;27758;55.900;8.516;2023-09-30T03:19:06;18.20;;;3.90;;
42098;SDS011;27758;55.900;8.516;2023-09-30T03:21:33;22.23;;;3.90;;
42098;SDS011;27758;55.900;8.516;2023-09-30T03:24:03;20.67;;;5.35;;
42098;SDS011;27758;55.900;8.516;2023-09-30T03:26:29;19.15;;;3.75;;
42098;SDS011;27758;55.900;8.516;2023-09-30T03:28:56;22.63;;;4.38;;
42098;SDS011;27758;55.900;8.516;2023-09-30T03:31:22;20.63;;;4.43;;
42098;SDS011;27758;55.900;8.516;2023-09-30T03:33:49;21.15;;;4.50;;
42098;SDS011;27758;55.900;8.516;2023-09-30T03:36:16;20.80;;;4.70;;
42098;SDS011;27758;55.900;8.516;2023-09-30T03:38:43;23.65;;;4.38;;
42098;SDS011;27758;55.900;8.516;2023-09-30T03:41:10;18.20;;;4.20;;
42098;SDS011;27758;55.900;8.516;2023-09-30T03:43:38;21.42;;;3.88;;
42098;SDS011;27758;55.900;8.516;2023-09-30T03:46:06;23.55;;;4.93;;
42098;SDS011;27758;55.900;8.516;2023-09-30T03:48:33;23.58;;;4.38;;
42098;SDS011;27758;55.900;8.516;2023-09-30T03:51:13;15.82;;;4.00;;
42098;SDS011;27758;55.900;8.516;2023-09-30T03:53:43;20.15;;;5.18;;
42098;SDS011;27758;55.900;8.516;2023-09-30T03:56:10;24.20;;;4.70;;
42098;SDS011;27758;55.900;8.516;2023-09-30T03:58:37;25.30;;;4.65;;
42098;SDS011;27758;55.900;8.516;2023-09-30T04:01:04;21.27;;;4.60;;
42098;SDS011;27758;55.900;8.516;2023-09-30T04:03:29;27.58;;;4.90;;
42098;SDS011;27758;55.900;8.516;2023-09-30T04:05:58;21.87;;;4.83;;
42098;SDS011;27758;55.900;8.516;2023-09-30T04:08:24;19.33;;;4.25;;
42098;SDS011;27758;55.900;8.516;2023-09-30T04:10:49;20.77;;;4.45;;
42098;SDS011;27758;55.900;8.516;2023-09-30T04:13:15;21.15;;;3.72;;
42098;SDS011;27758;55.900;8.516;2023-09-30T04:15:42;19.38;;;4.03;;
42098;SDS011;27758;55.900;8.516;2023-09-30T04:18:09;23.58;;;4.25;;
42098;SDS011;27758;55.900;8.516;2023-09-30T04:20:36;25.80;;;4.80;;
42098;SDS011;27758;55.900;8.516;2023-09-30T04:23:05;17.30;;;3.58;;
42098;SDS011;27758;55.900;8.516;2023-09-30T04:25:31;25.42;;;4.00;;
42098;SDS011;27758;55.900;8.516;2023-09-30T04:27:57;27.63;;;5.60;;
42098;SDS011;27758;55.900;8.516;2023-09-30T04:30:23;21.27;;;4.70;;
42098;SDS011;27758;55.900;8.516;2023-09-30T04:32:49;24.92;;;5.32;;
42098;SDS011;27758;55.900;8.516;2023-09-30T04:35:14;19.70;;;4.35;;
42098;SDS011;27758;55.900;8.516;2023-09-30T04:37:40;24.77;;;4.25;;
42098;SDS011;27758;55.900;8.516;2023-09-30T04:40:09;21.83;;;4.65;;
42098;SDS011;27758;55.900;8.516;2023-09-30T04:42:44;16.30;;;4.00;;
42098;SDS011;27758;55.900;8.516;2023-09-30T04:45:12;25.33;;;4.75;;
42098;SDS011;27758;55.900;8.516;2023-09-30T04:47:38;28.63;;;4.53;;
42098;SDS011;27758;55.900;8.516;2023-09-30T04:50:07;21.48;;;4.53;;
42098;SDS011;27758;55.900;8.516;2023-09-30T04:52:36;25.55;;;4.95;;
42098;SDS011;27758;55.900;8.516;2023-09-30T04:55:04;18.20;;;4.78;;
42098;SDS011;27758;55.900;8.516;2023-09-30T04:57:30;23.45;;;5.63;;
42098;SDS011;27758;55.900;8.516;2023-09-30T04:59:56;24.33;;;4.20;;
42098;SDS011;27758;55.900;8.516;2023-09-30T05:02:26;25.52;;;4.78;;
42098;SDS011;27758;55.900;8.516;2023-09-30T05:04:52;27.73;;;4.97;;
42098;SDS011;27758;55.900;8.516;2023-09-30T05:07:19;26.25;;;4.35;;
42098;SDS011;27758;55.900;8.516;2023-09-30T05:09:48;29.63;;;5.47;;
42098;SDS011;27758;55.900;8.516;2023-09-30T05:12:14;21.90;;;4.82;;
42098;SDS011;27758;55.900;8.516;2023-09-30T05:14:41;19.13;;;4.75;;
42098;SDS011;27758;55.900;8.516;2023-09-30T05:17:07;25.65;;;5.68;;
42098;SDS011;27758;55.900;8.516;2023-09-30T05:19:33;25.65;;;5.10;;
42098;SDS011;27758;55.900;8.516;2023-09-30T05:21:59;27.92;;;7.20;;
42098;SDS011;27758;55.900;8.516;2023-09-30T05:24:26;14.05;;;4.53;;
42098;SDS011;27758;55.900;8.516;2023-09-30T05:26:55;24.92;;;5.45;;
42098;SDS011;27758;55.900;8.516;2023-09-30T05:29:20;22.15;;;5.38;;
42098;SDS011;27758;55.900;8.516;2023-09-30T05:31:47;23.88;;;5.32;;
42098;SDS011;27758;55.900;8.516;2023-09-30T05:34:13;26.05;;;4.28;;
42098;SDS011;27758;55.900;8.516;2023-09-30T05:36:38;23.33;;;4.55;;
42098;SDS011;27758;55.900;8.516;2023-09-30T05:39:04;24.10;;;3.35;;
42098;SDS011;27758;55.900;8.516;2023-09-30T05:41:30;16.50;;;3.88;;
42098;SDS011;27758;55.900;8.516;2023-09-30T05:43:56;24.52;;;4.38;;
42098;SDS011;27758;55.900;8.516;2023-09-30T05:46:24;26.13;;;5.35;;
42098;SDS011;27758;55.900;8.516;2023-09-30T05:48:50;21.42;;;4.30;;
42098;SDS011;27758;55.900;8.516;2023-09-30T05:51:16;20.77;;;5.05;;
42098;SDS011;27758;55.900;8.516;2023-09-30T05:53:43;17.13;;;4.25;;
42098;SDS011;27758;55.900;8.516;2023-09-30T05:56:10;21.73;;;4.05;;
42098;SDS011;27758;55.900;8.516;2023-09-30T05:58:36;23.52;;;4.47;;
42098;SDS011;27758;55.900;8.516;2023-09-30T06:01:07;20.13;;;3.78;;
42098;SDS011;27758;55.900;8.516;2023-09-30T06:03:35;20.73;;;4.30;;
42098;SDS011;27758;55.900;8.516;2023-09-30T06:06:09;14.27;;;3.03;;
42098;SDS011;27758;55.900;8.516;2023-09-30T06:08:37;20.00;;;4.25;;
42098;SDS011;27758;55.900;8.516;2023-09-30T06:11:03;16.23;;;3.47;;
42098;SDS011;27758;55.900;8.516;2023-09-30T06:13:29;18.10;;;3.95;;
42098;SDS011;27758;55.900;8.516;2023-09-30T06:15:56;16.77;;;3.10;;
42098;SDS011;27758;55.900;8.516;2023-09-30T06:18:23;19.17;;;3.33;;
42098;SDS011;27758;55.900;8.516;2023-09-30T06:20:49;21.88;;;3.58;;
42098;SDS011;27758;55.900;8.516;2023-09-30T06:23:16;19.60;;;3.90;;
42098;SDS011;27758;55.900;8.516;2023-09-30T06:25:42;21.95;;;3.83;;
42098;SDS011;27758;55.900;8.516;2023-09-30T06:28:08;19.38;;;4.20;;
42098;SDS011;27758;55.900;8.516;2023-09-30T06:30:34;18.92;;;3.92;;
42098;SDS011;27758;55.900;8.516;2023-09-30T06:33:00;18.38;;;3.70;;
42098;SDS011;27758;55.900;8.516;2023-09-30T06:35:27;22.17;;;3.88;;
42098;SDS011;27758;55.900;8.516;2023-09-30T06:37:55;19.30;;;3.72;;
42098;SDS011;27758;55.900;8.516;2023-09-30T06:40:20;23.75;;;4.85;;
42098;SDS011;27758;55.900;8.516;2023-09-30T06:42:47;25.60;;;4.90;;
42098;SDS011;27758;55.900;8.516;2023-09-30T06:45:12;18.77;;;3.90;;
42098;SDS011;27758;55.900;8.516;2023-09-30T06:47:39;22.80;;;4.57;;
42098;SDS011;27758;55.900;8.516;2023-09-30T06:50:12;23.30;;;4.25;;
42098;SDS011;27758;55.900;8.516;2023-09-30T06:52:42;20.95;;;3.65;;
42098;SDS011;27758;55.900;8.516;2023-09-30T06:55:10;13.82;;;2.78;;
42098;SDS011;27758;55.900;8.516;2023-09-30T06:57:39;25.52;;;4.70;;
42098;SDS011;27758;55.900;8.516;2023-09-30T07:00:11;12.20;;;2.97;;
42098;SDS011;27758;55.900;8.516;2023-09-30T07:02:38;14.70;;;2.85;;
42098;SDS011;27758;55.900;8.516;2023-09-30T07:05:08;15.57;;;4.03;;
42098;SDS011;27758;55.900;8.516;2023-09-30T07:07:37;20.05;;;4.38;;
42098;SDS011;27758;55.900;8.516;2023-09-30T07:10:05;16.85;;;3.85;;
42098;SDS011;27758;55.900;8.516;2023-09-30T07:12:31;21.27;;;3.38;;
42098;SDS011;27758;55.900;8.516;2023-09-30T07:15:00;25.47;;;4.83;;
42098;SDS011;27758;55.900;8.516;2023-09-30T07:17:27;21.88;;;4.40;;
42098;SDS011;27758;55.900;8.516;2023-09-30T07:19:53;19.67;;;4.07;;
42098;SDS011;27758;55.900;8.516;2023-09-30T07:22:19;20.73;;;3.83;;
42098;SDS011;27758;55.900;8.516;2023-09-30T07:24:44;18.73;;;4.70;;
42098;SDS011;27758;55.900;8.516;2023-09-30T07:27:10;15.27;;;3.28;;
42098;SDS011;27758;55.900;8.516;2023-09-30T07:29:36;22.08;;;3.67;;
42098;SDS011;27758;55.900;8.516;2023-09-30T07:32:02;16.10;;;3.90;;
42098;SDS011;27758;55.900;8.516;2023-09-30T07:34:28;19.65;;;4.72;;
42098;SDS011;27758;55.900;8.516;2023-09-30T07:36:53;17.65;;;3.55;;
42098;SDS011;27758;55.900;8.516;2023-09-30T07:39:20;20.60;;;3.80;;
42098;SDS011;27758;55.900;8.516;2023-09-30T07:41:46;24.10;;;4.28;;
42098;SDS011;27758;55.900;8.516;2023-09-30T07:44:12;20.23;;;4.45;;
42098;SDS011;27758;55.900;8.516;2023-09-30T07:46:37;16.75;;;3.40;;
42098;SDS011;27758;55.900;8.516;2023-09-30T07:49:03;17.00;;;3.42;;
42098;SDS011;27758;55.900;8.516;2023-09-30T07:51:30;17.13;;;3.20;;
42098;SDS011;27758;55.900;8.516;2023-09-30T07:53:55;20.23;;;3.72;;
42098;SDS011;27758;55.900;8.516;2023-09-30T07:56:22;15.93;;;3.60;;
42098;SDS011;27758;55.900;8.516;2023-09-30T07:58:48;24.65;;;4.10;;
42098;SDS011;27758;55.900;8.516;2023-09-30T08:01:14;11.48;;;3.20;;
42098;SDS011;27758;55.900;8.516;2023-09-30T08:03:40;14.02;;;3.55;;
42098;SDS011;27758;55.900;8.516;2023-09-30T08:06:09;16.95;;;3.63;;
42098;SDS011;27758;55.900;8.516;2023-09-30T08:08:35;18.98;;;2.97;;
42098;SDS011;27758;55.900;8.516;2023-09-30T08:11:01;14.50;;;3.15;;
42098;SDS011;27758;55.900;8.516;2023-09-30T08:13:27;15.38;;;3.60;;
42098;SDS011;27758;55.900;8.516;2023-09-30T08:15:54;16.15;;;3.22;;
42098;SDS011;27758;55.900;8.516;2023-09-30T08:18:21;13.38;;;3.05;;
42098;SDS011;27758;55.900;8.516;2023-09-30T08:20:47;14.38;;;2.70;;
42098;SDS011;27758;55.900;8.516;2023-09-30T08:23:12;17.40;;;3.75;;
42098;SDS011;27758;55.900;8.516;2023-09-30T08:25:38;17.60;;;3.20;;
42098;SDS011;27758;55.900;8.516;2023-09-30T08:28:04;14.93;;;3.85;;
42098;SDS011;27758;55.900;8.516;2023-09-30T08:30:30;15.38;;;2.92;;
42098;SDS011;27758;55.900;8.516;2023-09-30T08:32:58;14.05;;;2.85;;
42098;SDS011;27758;55.900;8.516;2023-09-30T08:35:24;11.25;;;3.67;;
42098;SDS011;27758;55.900;8.516;2023-09-30T08:37:50;16.95;;;2.80;;
42098;SDS011;27758;55.900;8.516;2023-09-30T08:40:22;14.27;;;3.10;;
42098;SDS011;27758;55.900;8.516;2023-09-30T08:42:51;14.48;;;3.00;;
42098;SDS011;27758;55.900;8.516;2023-09-30T08:45:18;15.43;;;2.60;;
42098;SDS011;27758;55.900;8.516;2023-09-30T08:47:44;11.80;;;2.67;;
42098;SDS011;27758;55.900;8.516;2023-09-30T08:50:15;14.15;;;2.88;;
42098;SDS011;27758;55.900;8.516;2023-09-30T08:52:42;15.45;;;3.75;;
42098;SDS011;27758;55.900;8.516;2023-09-30T08:55:09;14.10;;;3.10;;
42098;SDS011;27758;55.900;8.516;2023-09-30T08:57:40;9.50;;;2.45;;
42098;SDS011;27758;55.900;8.516;2023-09-30T09:00:07;15.93;;;2.88;;
42098;SDS011;27758;55.900;8.516;2023-09-30T09:02:38;14.20;;;3.33;;
42098;SDS011;27758;55.900;8.516;2023-09-30T09:05:07;14.27;;;2.67;;
42098;SDS011;27758;55.900;8.516;2023-09-30T09:07:34;12.60;;;2.92;;
42098;SDS011;27758;55.900;8.516;2023-09-30T09:10:04;13.52;;;2.63;;
42098;SDS011;27758;55.900;8.516;2023-09-30T09:12:33;10.10;;;2.65;;
42098;SDS011;27758;55.900;8.516;2023-09-30T09:15:00;11.73;;;2.75;;
42098;SDS011;27758;55.900;8.516;2023-09-30T09:17:39;10.27;;;2.53;;
42098;SDS011;27758;55.900;8.516;2023-09-30T09:20:10;16.08;;;3.13;;
42098;SDS011;27758;55.900;8.516;2023-09-30T09:22:44;12.13;;;3.10;;
42098;SDS011;27758;55.900;8.516;2023-09-30T09:25:10;16.33;;;2.92;;
42098;SDS011;27758;55.900;8.516;2023-09-30T09:27:36;15.30;;;3.05;;
42098;SDS011;27758;55.900;8.516;2023-09-30T09:30:22;13.65;;;2.17;;
42098;SDS011;27758;55.900;8.516;2023-09-30T09:32:53;12.88;;;2.45;;
42098;SDS011;27758;55.900;8.516;2023-09-30T09:35:20;11.07;;;2.55;;
42098;SDS011;27758;55.900;8.516;2023-09-30T09:38:05;13.95;;;3.10;;
42098;SDS011;27758;55.900;8.516;2023-09-30T09:40:35;12.63;;;2.60;;
42098;SDS011;27758;55.900;8.516;2023-09-30T09:43:05;16.85;;;2.72;;
42098;SDS011;27758;55.900;8.516;2023-09-30T09:45:35;18.17;;;4.20;;
42098;SDS011;27758;55.900;8.516;2023-09-30T09:48:06;10.43;;;3.15;;
42098;SDS011;27758;55.900;8.516;2023-09-30T09:50:32;11.93;;;2.80;;
42098;SDS011;27758;55.900;8.516;2023-09-30T09:52:58;9.82;;;2.30;;
42098;SDS011;27758;55.900;8.516;2023-09-30T09:55:25;8.68;;;2.47;;
42098;SDS011;27758;55.900;8.516;2023-09-30T09:57:52;11.07;;;1.98;;
42098;SDS011;27758;55.900;8.516;2023-09-30T10:00:21;8.70;;;1.98;;
42098;SDS011;27758;55.900;8.516;2023-09-30T10:02:49;9.93;;;2.55;;
42098;SDS011;27758;55.900;8.516;2023-09-30T10:05:16;12.68;;;2.45;;
42098;SDS011;27758;55.900;8.516;2023-09-30T10:10:35;11.15;;;2.08;;
42098;SDS011;27758;55.900;8.516;2023-09-30T10:13:05;10.45;;;1.80;;
42098;SDS011;27758;55.900;8.516;2023-09-30T10:15:34;5.97;;;1.73;;
42098;SDS011;27758;55.900;8.516;2023-09-30T10:18:11;8.40;;;1.90;;
42098;SDS011;27758;55.900;8.516;2023-09-30T10:20:41;11.13;;;1.90;;
42098;SDS011;27758;55.900;8.516;2023-09-30T10:23:28;10.00;;;1.98;;
42098;SDS011;27758;55.900;8.516;2023-09-30T10:28:41;11.77;;;2.50;;
42098;SDS011;27758;55.900;8.516;2023-09-30T10:31:20;10.52;;;2.50;;
42098;SDS011;27758;55.900;8.516;2023-09-30T10:46:47;9.63;;;2.00;;
42098;SDS011;27758;55.900;8.516;2023-09-30T10:51:52;9.80;;;2.63;;
42098;SDS011;27758;55.900;8.516;2023-09-30T10:54:22;16.58;;;4.78;;
42098;SDS011;27758;55.900;8.516;2023-09-30T10:56:49;10.73;;;3.25;;
42098;SDS011;27758;55.900;8.516;2023-09-30T11:02:19;11.95;;;2.92;;
42098;SDS011;27758;55.900;8.516;2023-09-30T11:04:46;10.57;;;2.72;;
42098;SDS011;27758;55.900;8.516;2023-09-30T11:07:12;9.35;;;2.47;;
42098;SDS011;27758;55.900;8.516;2023-09-30T11:09:47;8.85;;;2.00;;
42098;SDS011;27758;55.900;8.516;2023-09-30T11:12:13;11.43;;;2.13;;
42098;SDS011;27758;55.900;8.516;2023-09-30T11:14:40;10.57;;;4.07;;
42098;SDS011;27758;55.900;8.516;2023-09-30T11:17:06;10.68;;;3.47;;
42098;SDS011;27758;55.900;8.516;2023-09-30T11:19:35;11.75;;;2.90;;
42098;SDS011;27758;55.900;8.516;2023-09-30T11:22:04;9.10;;;2.40;;
42098;SDS011;27758;55.900;8.516;2023-09-30T11:24:30;9.82;;;4.00;;
42098;SDS011;27758;55.900;8.516;2023-09-30T11:27:01;17.95;;;9.73;;
42098;SDS011;27758;55.900;8.516;2023-09-30T11:29:27;19.33;;;9.25;;
42098;SDS011;27758;55.900;8.516;2023-09-30T11:31:52;19.85;;;8.32;;
42098;SDS011;27758;55.900;8.516;2023-09-30T11:34:18;15.30;;;3.60;;
42098;SDS011;27758;55.900;8.516;2023-09-30T11:36:51;10.70;;;3.38;;
42098;SDS011;27758;55.900;8.516;2023-09-30T11:39:35;11.50;;;2.65;;
42098;SDS011;27758;55.900;8.516;2023-09-30T11:42:01;8.48;;;1.95;;
42098;SDS011;27758;55.900;8.516;2023-09-30T11:44:44;10.60;;;3.60;;
42098;SDS011;27758;55.900;8.516;2023-09-30T11:47:11;13.00;;;3.35;;
42098;SDS011;27758;55.900;8.516;2023-09-30T11:49:40;21.42;;;11.07;;
42098;SDS011;27758;55.900;8.516;2023-09-30T11:52:12;11.43;;;2.42;;
42098;SDS011;27758;55.900;8.516;2023-09-30T11:54:42;10.55;;;2.90;;
42098;SDS011;27758;55.900;8.516;2023-09-30T11:57:10;9.00;;;3.20;;
42098;SDS011;27758;55.900;8.516;2023-09-30T11:59:46;12.35;;;3.53;;
42098;SDS011;27758;55.900;8.516;2023-09-30T12:02:13;9.23;;;3.15;;
42098;SDS011;27758;55.900;8.516;2023-09-30T12:04:40;19.42;;;5.63;;
42098;SDS011;27758;55.900;8.516;2023-09-30T12:07:10;13.85;;;2.40;;
42098;SDS011;27758;55.900;8.516;2023-09-30T12:09:36;8.75;;;2.60;;
42098;SDS011;27758;55.900;8.516;2023-09-30T12:12:02;17.00;;;7.50;;
42098;SDS011;27758;55.900;8.516;2023-09-30T12:14:29;14.15;;;2.40;;
42098;SDS011;27758;55.900;8.516;2023-09-30T12:16:56;6.75;;;2.03;;
42098;SDS011;27758;55.900;8.516;2023-09-30T12:19:22;8.30;;;1.98;;
42098;SDS011;27758;55.900;8.516;2023-09-30T12:21:48;7.70;;;1.90;;
42098;SDS011;27758;55.900;8.516;2023-09-30T12:24:15;14.70;;;1.95;;
42098;SDS011;27758;55.900;8.516;2023-09-30T12:26:45;11.90;;;2.13;;
42098;SDS011;27758;55.900;8.516;2023-09-30T12:29:17;11.32;;;2.25;;
42098;SDS011;27758;55.900;8.516;2023-09-30T12:31:44;13.45;;;2.40;;
42098;SDS011;27758;55.900;8.516;2023-09-30T12:34:11;11.52;;;2.65;;
42098;SDS011;27758;55.900;8.516;2023-09-30T12:36:38;12.40;;;2.78;;
42098;SDS011;27758;55.900;8.516;2023-09-30T12:39:04;9.52;;;2.20;;
42098;SDS011;27758;55.900;8.516;2023-09-30T12:41:44;9.48;;;2.47;;
42098;SDS011;27758;55.900;8.516;2023-09-30T12:44:10;13.02;;;2.75;;
42098;SDS011;27758;55.900;8.516;2023-09-30T12:46:36;14.95;;;2.22;;
42098;SDS011;27758;55.900;8.516;2023-09-30T12:49:04;12.73;;;2.38;;
42098;SDS011;27758;55.900;8.516;2023-09-30T12:51:30;14.90;;;2.45;;
42098;SDS011;27758;55.900;8.516;2023-09-30T12:53:56;13.85;;;2.92;;
42098;SDS011;27758;55.900;8.516;2023-09-30T12:56:23;10.15;;;2.05;;
42098;SDS011;27758;55.900;8.516;2023-09-30T12:58:49;9.98;;;2.70;;
42098;SDS011;27758;55.900;8.516;2023-09-30T13:01:15;11.90;;;2.33;;
42098;SDS011;27758;55.900;8.516;2023-09-30T13:03:43;10.43;;;2.55;;
42098;SDS011;27758;55.900;8.516;2023-09-30T13:06:09;9.38;;;1.77;;
42098;SDS011;27758;55.900;8.516;2023-09-30T13:08:35;11.07;;;1.90;;
42098;SDS011;27758;55.900;8.516;2023-09-30T13:11:01;9.80;;;1.73;;
42098;SDS011;27758;55.900;8.516;2023-09-30T13:13:31;13.90;;;4.57;;
42098;SDS011;27758;55.900;8.516;2023-09-30T13:16:01;13.57;;;2.55;;
42098;SDS011;27758;55.900;8.516;2023-09-30T13:18:30;12.05;;;2.63;;
42098;SDS011;27758;55.900;8.516;2023-09-30T13:23:33;9.57;;;2.28;;
42098;SDS011;27758;55.900;8.516;2023-09-30T13:25:59;12.82;;;2.45;;
42098;SDS011;27758;55.900;8.516;2023-09-30T13:28:26;12.35;;;2.33;;
42098;SDS011;27758;55.900;8.516;2023-09-30T13:30:53;14.82;;;2.80;;
42098;SDS011;27758;55.900;8.516;2023-09-30T13:46:15;10.30;;;2.17;;
42098;SDS011;27758;55.900;8.516;2023-09-30T13:48:41;10.25;;;1.77;;
42098;SDS011;27758;55.900;8.516;2023-09-30T13:51:11;10.25;;;2.58;;
42098;SDS011;27758;55.900;8.516;2023-09-30T13:53:36;8.40;;;1.60;;
